Time;durP1;ratioP1;P1;durP2;ratioP2;P2;SDS_P1;SDS_P2;PMS_P1;PMS_P2;Temp;Humidity;BMP_temperature;BMP_pressure;BME280_temperature;BME280_humidity;BME280_pressure;Samples;Min_cycle;Max_cycle;Signal;HPM_P1;HPM_P2
2021/09/20 00:00:24;;;;;;;2.70;1.25;;;;;;;9.78;96.85;144661.80;1836738;77;22242;-59
2021/09/20 00:03:00;;;;;;;2.58;1.50;;;;;;;9.78;96.87;144661.80;1853555;77;22124;-61
2021/09/20 00:05:53;;;;;;;2.58;1.40;;;;;;;9.80;97.09;144664.33;1834988;77;22160;-62
2021/09/20 00:08:34;;;;;;;3.67;1.35;;;;;;;9.76;97.07;144655.53;1834105;77;22598;-61
2021/09/20 00:11:10;;;;;;;3.27;1.30;;;;;;;9.75;97.05;144654.28;1853900;77;22136;-62
2021/09/20 00:13:46;;;;;;;2.42;1.10;;;;;;;9.73;97.11;144649.27;1819883;77;27977;-60
2021/09/20 00:16:20;;;;;;;3.95;1.32;;;;;;;9.78;97.07;144661.80;1835297;77;22137;-63
2021/09/20 00:19:14;;;;;;;2.42;1.20;;;;;;;9.81;97.18;144666.81;1835294;77;22599;-60
2021/09/20 00:21:49;;;;;;;4.58;1.07;;;;;;;9.82;97.02;144669.31;1835157;77;22215;-61
2021/09/20 00:24:49;;;;;;;1.60;1.00;;;;;;;9.81;97.14;144666.81;1834143;77;22647;-61
2021/09/20 00:27:23;;;;;;;2.27;1.00;;;;;;;9.78;97.18;144661.80;1835005;77;22125;-61
2021/09/20 00:29:58;;;;;;;2.02;1.30;;;;;;;9.74;97.04;144651.80;1834984;77;22153;-60
2021/09/20 00:32:34;;;;;;;2.58;1.00;;;;;;;9.75;97.20;144654.28;1834977;77;22136;-65
2021/09/20 00:35:27;;;;;;;3.58;1.37;;;;;;;9.75;97.07;144654.28;1835064;77;22168;-59
2021/09/20 00:38:04;;;;;;;2.17;1.02;;;;;;;9.73;97.14;144648.02;1834978;77;22547;-62
2021/09/20 00:40:44;;;;;;;2.75;1.10;;;;;;;9.71;97.20;144644.23;1834272;77;22156;-63
2021/09/20 00:43:38;;;;;;;2.55;1.25;;;;;;;9.71;97.35;144643.00;1834885;77;22157;-59
2021/09/20 00:46:14;;;;;;;2.67;1.10;;;;;;;9.72;97.60;144646.78;1853538;77;22186;-63
2021/09/20 00:49:14;;;;;;;2.20;1.15;;;;;;;9.72;97.26;144646.78;1853462;77;22195;-62
2021/09/20 00:52:08;;;;;;;2.45;1.30;;;;;;;9.66;97.37;144631.70;1834956;77;22136;-61
2021/09/20 00:54:43;;;;;;;2.42;1.00;;;;;;;9.66;97.51;144631.70;1835078;77;22132;-59
2021/09/20 00:57:41;;;;;;;1.32;1.07;;;;;;;9.70;97.74;144641.75;1834956;77;22547;-61
2021/09/20 01:00:35;;;;;;;3.55;1.22;;;;;;;9.71;97.61;144644.23;1835006;77;22133;-62
2021/09/20 01:03:10;;;;;;;2.22;1.17;;;;;;;9.71;97.57;144644.23;1819409;77;27946;-60
2021/09/20 01:06:04;;;;;;;1.40;1.00;;;;;;;9.76;97.51;144656.78;1834957;77;22599;-61
2021/09/20 01:08:58;;;;;;;3.60;1.47;;;;;;;9.74;97.55;144650.50;1834996;77;22129;-62
2021/09/20 01:11:52;;;;;;;5.17;1.02;;;;;;;9.70;97.71;144641.75;1834951;77;22132;-62
2021/09/20 01:14:46;;;;;;;2.47;1.10;;;;;;;9.65;98.03;144627.97;1835189;77;22136;-64
2021/09/20 01:17:21;;;;;;;2.25;1.10;;;;;;;9.60;98.16;144616.69;1835099;77;22128;-60
2021/09/20 01:19:56;;;;;;;1.60;0.93;;;;;;;9.55;98.07;144604.16;1835015;77;22221;-61
2021/09/20 01:23:02;;;;;;;4.33;1.30;;;;;;;9.54;98.23;144602.91;1853491;77;22573;-64
2021/09/20 01:25:37;;;;;;;2.62;1.10;;;;;;;9.57;98.34;144609.17;1853555;77;22131;-61
2021/09/20 01:28:12;;;;;;;4.25;1.20;;;;;;;9.55;98.41;144604.16;1834955;77;22570;-65
2021/09/20 01:30:47;;;;;;;4.42;1.20;;;;;;;9.53;98.43;144599.13;1834999;77;22136;-63
2021/09/20 01:33:24;;;;;;;3.67;1.47;;;;;;;9.53;98.68;144599.13;1834796;77;22615;-60
2021/09/20 01:36:01;;;;;;;3.25;0.93;;;;;;;9.58;98.79;144610.42;1853547;77;22132;-65
2021/09/20 01:38:56;;;;;;;2.20;1.10;;;;;;;9.56;98.88;144606.64;1853479;77;22643;-59
2021/09/20 01:41:34;;;;;;;2.60;1.10;;;;;;;9.56;99.23;144606.64;1834968;77;22136;-61
2021/09/20 01:44:28;;;;;;;1.90;1.05;;;;;;;9.58;99.38;144611.66;1835014;77;22618;-61
2021/09/20 01:47:23;;;;;;;3.72;1.30;;;;;;;9.58;99.36;144610.42;1835010;77;22120;-61
2021/09/20 01:49:57;;;;;;;2.58;1.10;;;;;;;9.56;99.48;144606.64;1835003;77;22539;-62
2021/09/20 01:52:52;;;;;;;3.95;1.10;;;;;;;9.54;99.46;144601.63;1834925;77;22566;-63
2021/09/20 01:55:33;;;;;;;1.95;0.90;;;;;;;9.54;99.41;144601.63;1853552;77;22136;-62
2021/09/20 01:58:08;;;;;;;2.17;1.30;;;;;;;9.53;99.29;144600.37;1853581;77;22136;-64
2021/09/20 02:01:02;;;;;;;2.15;1.00;;;;;;;9.55;99.35;144604.16;1853643;77;22558;-59
2021/09/20 02:03:37;;;;;;;2.08;0.95;;;;;;;9.58;99.34;144611.66;1835087;77;22136;-60
2021/09/20 02:06:31;;;;;;;1.82;1.10;;;;;;;9.56;99.25;144607.87;1835096;77;22136;-61
2021/09/20 02:09:09;;;;;;;2.25;0.98;;;;;;;9.54;99.32;144601.63;1834996;77;22121;-63
2021/09/20 02:11:41;;;;;;;5.15;1.20;;;;;;;9.53;99.36;144599.13;1835203;77;22160;-64
2021/09/20 02:14:34;;;;;;;1.35;1.15;;;;;;;9.53;99.45;144600.37;1835000;77;22137;-62
2021/09/20 02:17:09;;;;;;;3.17;1.07;;;;;;;9.57;99.74;144609.17;1835049;77;22125;-62
2021/09/20 02:20:12;;;;;;;2.35;1.07;;;;;;;9.58;99.89;144611.66;1853477;77;22163;-63
2021/09/20 02:23:14;;;;;;;3.58;1.30;;;;;;;9.56;99.97;144606.64;1834145;77;22164;-64
2021/09/20 02:26:08;;;;;;;3.22;1.42;;;;;;;9.54;99.84;144601.63;1853556;77;22139;-64
2021/09/20 02:29:08;;;;;;;2.52;1.30;;;;;;;9.49;99.74;144590.37;1853669;77;22165;-62
2021/09/20 02:31:49;;;;;;;5.35;1.02;;;;;;;9.49;99.82;144589.09;1834144;77;22606;-62
2021/09/20 02:34:24;;;;;;;2.30;1.40;;;;;;;9.46;99.77;144582.83;1853562;77;22544;-62
2021/09/20 02:37:00;;;;;;;1.95;1.10;;;;;;;9.47;99.93;144584.11;1837754;77;27953;-63
2021/09/20 02:39:55;;;;;;;2.90;1.02;;;;;;;9.57;99.94;144609.17;1834919;77;22554;-62
2021/09/20 02:42:30;;;;;;;2.12;1.20;;;;;;;9.53;99.72;144600.37;1853507;77;22136;-60
2021/09/20 02:45:24;;;;;;;1.87;1.05;;;;;;;9.56;99.91;144606.64;1834931;77;22136;-63
2021/09/20 02:47:59;;;;;;;1.67;1.10;;;;;;;9.57;100.00;144609.17;1835112;77;22124;-61
2021/09/20 02:50:34;;;;;;;1.75;0.95;;;;;;;9.56;100.00;144606.64;1834964;77;22554;-63
2021/09/20 02:53:40;;;;;;;3.05;1.17;;;;;;;9.52;100.00;144596.64;1731906;80;21090;-96
2021/09/20 02:56:23;;;;;;;2.22;1.02;;;;;;;9.58;100.00;144610.42;1853295;77;22652;-60
2021/09/20 02:59:04;;;;;;;2.55;1.10;;;;;;;9.55;99.93;144604.16;1833773;77;22203;-61
2021/09/20 03:01:46;;;;;;;2.58;1.32;;;;;;;9.49;100.00;144589.09;1853126;77;22227;-64
2021/09/20 03:04:20;;;;;;;2.15;1.35;;;;;;;9.44;100.00;144576.56;1834767;77;22128;-60
2021/09/20 03:06:55;;;;;;;2.15;1.20;;;;;;;9.40;100.00;144566.56;1853530;77;22124;-62
2021/09/20 03:09:32;;;;;;;3.62;1.60;;;;;;;9.41;100.00;144569.05;1834789;77;22152;-62
2021/09/20 03:12:14;;;;;;;2.80;1.47;;;;;;;9.41;100.00;144570.28;1853670;77;22203;-64
2021/09/20 03:14:55;;;;;;;2.60;1.12;;;;;;;9.41;100.00;144569.05;1853525;77;22265;-60
2021/09/20 03:17:49;;;;;;;1.77;1.10;;;;;;;9.39;100.00;144564.03;1834979;77;22133;-63
2021/09/20 03:20:30;;;;;;;1.85;1.22;;;;;;;9.37;100.00;144559.06;1834072;77;22151;-60
2021/09/20 03:23:05;;;;;;;3.17;1.40;;;;;;;9.37;100.00;144559.06;1853507;77;22131;-64
2021/09/20 03:25:39;;;;;;;2.67;1.02;;;;;;;9.40;100.00;144566.56;1835009;77;22128;-63
2021/09/20 03:28:14;;;;;;;2.70;1.17;;;;;;;9.41;100.00;144569.05;1835009;77;22547;-64
2021/09/20 03:30:49;;;;;;;1.80;1.00;;;;;;;9.41;100.00;144569.05;1835119;77;22128;-63
2021/09/20 03:33:30;;;;;;;2.40;1.52;;;;;;;9.40;100.00;144566.56;1834155;77;22579;-63
2021/09/20 03:36:05;;;;;;;2.25;1.27;;;;;;;9.42;100.00;144571.59;1853542;77;22124;-59
2021/09/20 03:38:47;;;;;;;2.15;1.25;;;;;;;9.46;100.00;144581.58;1853555;77;22233;-63
2021/09/20 03:41:23;;;;;;;2.77;1.37;;;;;;;9.49;100.00;144590.37;1834748;77;22163;-59
2021/09/20 03:44:05;;;;;;;6.70;2.12;;;;;;;9.45;100.00;144579.09;1834260;77;22156;-59
2021/09/20 03:46:40;;;;;;;3.17;1.60;;;;;;;9.39;100.00;144564.03;1819417;77;27948;-59
2021/09/20 03:49:33;;;;;;;4.22;1.30;;;;;;;9.46;100.00;144582.83;1834923;77;22132;-62
2021/09/20 03:52:08;;;;;;;3.75;1.15;;;;;;;9.45;100.00;144579.09;1834961;77;22547;-60
2021/09/20 03:55:03;;;;;;;3.02;1.22;;;;;;;9.38;100.00;144561.53;1853541;77;22128;-59
2021/09/20 03:57:56;;;;;;;2.45;1.40;;;;;;;9.35;100.00;144556.52;1833754;77;22129;-59
2021/09/20 04:00:31;;;;;;;2.47;1.10;;;;;;;9.38;100.00;144561.53;1817781;77;22148;-60
2021/09/20 04:03:25;;;;;;;4.97;1.50;;;;;;;9.35;100.00;144556.52;1815315;77;22196;-62
2021/09/20 04:06:00;;;;;;;3.20;1.40;;;;;;;9.30;100.00;144542.75;1816999;77;22180;-62
2021/09/20 04:08:38;;;;;;;3.60;1.20;;;;;;;9.31;100.00;144546.53;1848672;77;22162;-61
2021/09/20 04:11:19;;;;;;;5.15;1.62;;;;;;;9.29;100.00;144541.50;1816698;77;22649;-61
2021/09/20 04:13:56;;;;;;;5.05;1.65;;;;;;;9.35;100.00;144556.52;1828123;77;22190;-61
2021/09/20 04:16:31;;;;;;;3.15;1.35;;;;;;;9.33;100.00;144551.50;1803306;77;28025;-62
2021/09/20 04:19:25;;;;;;;3.40;1.40;;;;;;;9.39;100.00;144564.03;1817983;77;22191;-62
2021/09/20 04:22:24;;;;;;;3.40;1.60;;;;;;;9.39;100.00;144565.31;1817740;77;22219;-58
2021/09/20 04:25:19;;;;;;;4.00;1.35;;;;;;;9.39;100.00;144565.31;1820521;77;23819;-61
2021/09/20 04:27:53;;;;;;;4.28;1.25;;;;;;;9.32;100.00;144549.02;1819245;77;22159;-61
2021/09/20 04:30:30;;;;;;;5.28;1.60;;;;;;;9.28;100.00;144538.97;1816846;77;22213;-59
2021/09/20 04:33:04;;;;;;;2.77;1.20;;;;;;;9.26;100.00;144532.70;1823741;77;22578;-61
2021/09/20 04:35:40;;;;;;;2.27;1.17;;;;;;;9.25;100.00;144530.22;1820238;77;22570;-59
2021/09/20 04:38:41;;;;;;;3.67;1.57;;;;;;;9.24;100.00;144528.97;1833137;77;22193;-66
2021/09/20 04:41:15;;;;;;;2.35;1.20;;;;;;;9.19;100.00;144516.45;1851824;77;22148;-63
2021/09/20 04:44:11;;;;;;;2.08;1.20;;;;;;;9.19;100.00;144516.45;1815439;77;22670;-62
2021/09/20 04:46:46;;;;;;;2.77;1.27;;;;;;;9.25;100.00;144531.47;1822804;77;22732;-63
2021/09/20 04:49:24;;;;;;;4.00;1.65;;;;;;;9.32;100.00;144547.77;1820236;77;22613;-62
2021/09/20 04:52:01;;;;;;;2.45;1.37;;;;;;;9.29;100.00;144541.50;1834813;77;22134;-62
2021/09/20 04:54:36;;;;;;;2.65;1.20;;;;;;;9.30;100.00;144543.98;1841106;77;22614;-61
2021/09/20 04:57:10;;;;;;;2.85;1.35;;;;;;;9.23;100.00;144525.19;1824341;77;22169;-64
2021/09/20 05:00:08;;;;;;;3.80;1.25;;;;;;;9.26;100.00;144534.00;1816786;77;22203;-64
2021/09/20 05:03:09;;;;;;;2.00;1.17;;;;;;;9.31;100.00;144546.53;1822322;78;22330;-61
2021/09/20 05:05:44;;;;;;;2.52;1.20;;;;;;;9.31;100.00;144546.53;1819216;77;22144;-62
2021/09/20 05:08:38;;;;;;;2.45;1.27;;;;;;;9.32;100.00;144547.77;1829866;77;22159;-62
2021/09/20 05:11:13;;;;;;;3.17;1.37;;;;;;;9.35;100.00;144555.28;1833579;77;22264;-62
2021/09/20 05:14:08;;;;;;;2.52;1.22;;;;;;;9.42;100.00;144572.83;1831037;77;22272;-60
2021/09/20 05:17:08;;;;;;;4.75;1.75;;;;;;;9.45;100.00;144579.09;1818960;77;22634;-64
2021/09/20 05:19:49;;;;;;;2.95;1.60;;;;;;;9.51;100.00;144594.11;1817855;77;22208;-62
2021/09/20 05:22:25;;;;;;;2.90;1.47;;;;;;;9.47;100.00;144584.11;1817851;77;22183;-62
2021/09/20 05:25:25;;;;;;;3.08;1.40;;;;;;;9.42;100.00;144572.83;1816495;77;22626;-61
2021/09/20 05:28:19;;;;;;;2.80;1.37;;;;;;;9.46;100.00;144581.58;1834899;77;22156;-62
2021/09/20 05:30:55;;;;;;;3.62;1.65;;;;;;;9.48;100.00;144586.59;1834757;77;22160;-64
2021/09/20 05:33:33;;;;;;;4.15;1.65;;;;;;;9.52;100.00;144597.89;1834909;77;22144;-63
2021/09/20 05:36:07;;;;;;;3.95;1.60;;;;;;;9.54;100.00;144601.63;1853475;77;22135;-60
2021/09/20 05:38:42;;;;;;;2.40;1.60;;;;;;;9.60;100.00;144616.69;1834934;77;22132;-59
2021/09/20 05:41:35;;;;;;;2.92;1.50;;;;;;;9.62;100.00;144621.70;1819743;77;22237;-62
2021/09/20 05:44:28;;;;;;;2.37;1.40;;;;;;;9.61;100.00;144619.17;1832876;77;22278;-62
2021/09/20 05:47:04;;;;;;;4.62;1.60;;;;;;;9.63;100.00;144624.19;1817177;77;22143;-62
2021/09/20 05:49:40;;;;;;;3.10;1.60;;;;;;;9.75;100.00;144654.28;1831211;77;22234;-64
2021/09/20 05:52:16;;;;;;;3.80;1.70;;;;;;;9.71;100.00;144644.23;1822287;77;22631;-61
2021/09/20 05:54:51;;;;;;;3.02;1.65;;;;;;;9.68;100.00;144636.72;1802728;77;28528;-58
2021/09/20 05:57:45;;;;;;;3.20;1.60;;;;;;;9.75;100.00;144653.05;1817309;77;22199;-61
2021/09/20 06:00:21;;;;;;;3.67;2.00;;;;;;;9.66;100.00;144631.70;1815433;77;22195;-62
2021/09/20 06:03:17;;;;;;;4.10;1.90;;;;;;;9.64;100.00;144626.73;1834875;77;22551;-60
2021/09/20 06:05:52;;;;;;;3.70;2.10;;;;;;;9.65;100.00;144627.97;1834914;77;20100;-62
2021/09/20 06:08:45;;;;;;;3.42;1.90;;;;;;;9.68;100.00;144636.72;1834907;77;22156;-62
2021/09/20 06:11:27;;;;;;;3.75;2.00;;;;;;;9.68;100.00;144635.48;1834059;77;22138;-62
2021/09/20 06:14:29;;;;;;;4.55;2.20;;;;;;;9.69;100.00;144639.27;1853773;77;22215;-61
2021/09/20 06:17:24;;;;;;;3.15;1.70;;;;;;;9.68;100.00;144636.72;1834799;77;22559;-62
2021/09/20 06:20:00;;;;;;;5.90;2.08;;;;;;;9.72;100.00;144646.78;1834718;77;22163;-59
2021/09/20 06:22:54;;;;;;;4.05;2.10;;;;;;;9.81;100.00;144666.81;1827414;77;22144;-59
2021/09/20 06:25:29;;;;;;;4.05;1.98;;;;;;;9.88;100.00;144684.38;1852902;77;22156;-63
2021/09/20 06:28:24;;;;;;;3.90;2.00;;;;;;;10.01;100.00;144716.97;1834228;77;22132;-62
2021/09/20 06:31:17;;;;;;;6.12;2.15;;;;;;;10.14;100.00;144749.55;1834887;77;22156;-63
2021/09/20 06:33:52;;;;;;;3.40;2.00;;;;;;;10.17;100.00;144755.81;1834906;77;22156;-59
2021/09/20 06:36:27;;;;;;;3.10;2.00;;;;;;;10.16;100.00;144753.33;1804874;77;22238;-64
2021/09/20 06:39:10;;;;;;;3.30;2.00;;;;;;;10.19;100.00;144762.08;1834010;77;22149;-63
2021/09/20 06:44:43;;;;;;;4.35;2.40;;;;;;;10.32;100.00;144793.47;1834991;77;22132;-62
2021/09/20 06:47:20;;;;;;;4.40;2.00;;;;;;;10.28;100.00;144783.47;1819225;77;27970;-60
2021/09/20 06:50:21;;;;;;;4.62;2.15;;;;;;;10.38;100.00;144808.56;1834026;77;22185;-63
2021/09/20 06:52:57;;;;;;;5.55;2.87;;;;;;;10.42;100.00;144817.31;1853485;77;22175;-60
2021/09/20 06:55:32;;;;;;;4.15;2.70;;;;;;;10.35;100.00;144799.75;1835309;77;22133;-62
2021/09/20 06:58:27;;;;;;;4.75;2.30;;;;;;;10.34;100.00;144797.25;1837892;77;27956;-64
2021/09/20 07:01:03;;;;;;;3.90;2.30;;;;;;;10.39;100.00;144809.80;1835125;77;22183;-60
2021/09/20 07:03:56;;;;;;;3.45;2.00;;;;;;;10.40;100.00;144813.53;1853485;77;22159;-63
2021/09/20 07:06:37;;;;;;;4.62;2.30;;;;;;;10.35;100.00;144801.00;1853655;77;22129;-64
2021/09/20 07:09:15;;;;;;;6.28;2.45;;;;;;;10.33;100.00;144794.72;1853584;77;22132;-63
2021/09/20 07:11:50;;;;;;;5.22;2.50;;;;;;;10.31;100.00;144790.98;1835036;77;22157;-62
2021/09/20 07:14:25;;;;;;;4.95;2.30;;;;;;;10.29;100.00;144784.72;1835054;77;22551;-58
2021/09/20 07:17:20;;;;;;;5.53;2.47;;;;;;;10.22;100.00;144769.59;1834761;77;22586;-69
2021/09/20 07:19:55;;;;;;;4.60;3.05;;;;;;;10.19;100.00;144760.84;1835012;77;22136;-61
2021/09/20 07:22:36;;;;;;;3.87;2.35;;;;;;;10.18;100.00;144759.59;1853673;77;22602;-66
2021/09/20 07:25:13;;;;;;;5.12;2.90;;;;;;;10.14;100.00;144749.55;1835156;77;22648;-64
2021/09/20 07:28:27;;;;;;;8.18;2.52;;;;;;;10.17;100.00;144755.81;1838610;77;22213;-64
2021/09/20 07:31:13;;;;;;;4.55;3.02;;;;;;;10.08;100.00;144733.28;1837815;77;27960;-63
2021/09/20 07:33:48;;;;;;;4.17;2.40;;;;;;;10.11;100.00;144742.03;1835024;77;22588;-62
2021/09/20 07:36:25;;;;;;;5.45;2.80;;;;;;;10.10;100.00;144739.55;1853634;77;22181;-61
2021/09/20 07:39:25;;;;;;;5.33;2.92;;;;;;;10.12;100.00;144744.53;1834021;77;22136;-63
2021/09/20 07:42:03;;;;;;;4.72;2.75;;;;;;;10.16;100.00;144754.56;1843101;77;22625;-64
2021/09/20 07:44:41;;;;;;;6.53;2.70;;;;;;;10.24;100.00;144772.12;1834917;77;22132;-63
2021/09/20 07:47:35;;;;;;;4.80;2.70;;;;;;;10.32;100.00;144793.47;1834938;77;22148;-64
2021/09/20 07:50:18;;;;;;;4.37;2.62;;;;;;;10.32;100.00;144793.47;1834240;77;22152;-63
2021/09/20 07:53:12;;;;;;;5.80;2.45;;;;;;;10.36;100.00;144802.28;1819428;77;27977;-63
2021/09/20 07:56:06;;;;;;;3.60;2.40;;;;;;;10.43;100.00;144821.09;1835134;77;22120;-61
2021/09/20 07:58:42;;;;;;;3.65;2.30;;;;;;;10.48;100.00;144832.39;1835291;77;22582;-61
2021/09/20 08:01:35;;;;;;;4.03;2.30;;;;;;;10.55;100.00;144849.91;1835092;77;22587;-64
2021/09/20 08:04:29;;;;;;;5.37;2.75;;;;;;;10.61;100.00;144863.75;1835006;77;22160;-62
2021/09/20 08:07:31;;;;;;;7.87;3.50;;;;;;;10.64;100.00;144872.50;1853483;77;22215;-63
2021/09/20 08:10:08;;;;;;;5.28;2.70;;;;;;;10.67;100.00;144878.78;1834806;77;22151;-65
2021/09/20 08:12:44;;;;;;;6.92;2.67;;;;;;;10.68;100.00;144881.27;1835091;77;22128;-62
2021/09/20 08:15:20;;;;;;;6.25;2.55;;;;;;;10.73;100.00;144893.81;1835130;77;22176;-65
2021/09/20 08:17:57;;;;;;;4.40;2.33;;;;;;;10.80;100.00;144911.38;1834944;77;22164;-62
2021/09/20 08:20:33;;;;;;;4.87;2.40;;;;;;;10.87;100.00;144927.70;1835058;77;22547;-63
2021/09/20 08:23:11;;;;;;;5.55;2.90;;;;;;;10.91;100.00;144937.72;1853717;77;22176;-63
2021/09/20 08:25:55;;;;;;;4.28;2.50;;;;;;;10.85;99.92;144922.69;1853609;77;22199;-63
2021/09/20 08:28:31;;;;;;;5.03;2.10;;;;;;;10.88;100.00;144930.19;1834901;77;22554;-62
2021/09/20 08:31:05;;;;;;;6.70;2.67;;;;;;;10.85;99.62;144922.69;1835127;77;22128;-61
2021/09/20 08:33:40;;;;;;;5.78;2.45;;;;;;;10.85;99.84;144922.69;1853651;77;22131;-61
2021/09/20 08:36:16;;;;;;;4.62;2.45;;;;;;;10.92;100.00;144940.25;1835034;77;22121;-64
2021/09/20 08:38:52;;;;;;;4.92;2.50;;;;;;;11.06;99.90;144974.09;1835120;77;22573;-64
2021/09/20 08:41:47;;;;;;;3.20;1.85;;;;;;;11.16;99.74;144997.95;1834877;77;22566;-63
2021/09/20 08:44:42;;;;;;;3.70;2.20;;;;;;;11.20;99.29;145008.02;1853522;77;22217;-62
2021/09/20 08:47:19;;;;;;;4.00;2.00;;;;;;;11.19;99.26;145005.47;1853577;77;22147;-63
2021/09/20 08:49:57;;;;;;;3.70;1.95;;;;;;;11.19;99.26;145006.72;1819647;77;28015;-63
2021/09/20 08:52:32;;;;;;;3.60;1.80;;;;;;;11.34;99.25;145043.12;1835032;77;22551;-63
2021/09/20 08:55:26;;;;;;;5.00;1.77;;;;;;;11.33;98.89;145040.63;1834999;77;22141;-64
2021/09/20 08:58:01;;;;;;;3.72;2.00;;;;;;;11.35;99.05;145044.36;1835156;77;22121;-64
2021/09/20 09:00:56;;;;;;;3.98;2.02;;;;;;;11.46;99.08;145073.25;1853568;77;22599;-62
2021/09/20 09:04:30;;;;;;;3.00;1.65;;;;;;;11.49;98.99;145080.77;1834177;77;22141;-62
2021/09/20 09:07:17;;;;;;;4.12;1.82;;;;;;;11.50;99.08;145082.06;1818554;77;27958;-62
2021/09/20 09:09:52;;;;;;;3.33;1.90;;;;;;;11.49;98.72;145079.53;1835049;77;22196;-63
2021/09/20 09:12:35;;;;;;;2.92;1.60;;;;;;;11.46;98.69;145073.25;1834267;77;22150;-62
2021/09/20 09:15:20;;;;;;;5.25;2.80;;;;;;;11.42;98.91;145063.23;1853904;77;22200;-63
2021/09/20 09:18:13;;;;;;;3.83;1.52;;;;;;;11.49;99.06;145080.77;1835032;77;20215;-63
2021/09/20 09:21:20;;;;;;;3.15;1.70;;;;;;;11.50;98.89;145083.31;1834359;77;22153;-64
2021/09/20 09:24:02;;;;;;;4.00;2.35;;;;;;;11.64;99.16;145115.94;1834965;77;22164;-63
2021/09/20 09:26:38;;;;;;;3.85;1.85;;;;;;;11.68;98.43;145126.00;1853559;77;22550;-64
2021/09/20 09:29:15;;;;;;;3.42;1.55;;;;;;;11.79;98.46;145152.34;1819522;77;27977;-63
2021/09/20 09:31:56;;;;;;;4.92;1.77;;;;;;;11.84;97.95;145164.91;1834911;77;22160;-63
2021/09/20 09:34:59;;;;;;;4.10;1.72;;;;;;;11.91;97.67;145183.78;1837735;77;27978;-63
2021/09/20 09:37:57;;;;;;;2.65;1.30;;;;;;;11.95;97.33;145193.80;1853551;77;22136;-63
2021/09/20 09:40:58;;;;;;;2.98;1.30;;;;;;;11.93;97.75;145187.52;1834990;77;22551;-61
2021/09/20 09:43:55;;;;;;;3.00;1.50;;;;;;;11.93;97.39;145187.52;1835025;77;22547;-62
2021/09/20 09:46:49;;;;;;;5.58;1.65;;;;;;;11.88;97.29;145174.97;1853530;77;22136;-61
2021/09/20 09:49:42;;;;;;;2.52;1.17;;;;;;;11.91;97.34;145183.78;1835031;77;22136;-64
2021/09/20 09:52:37;;;;;;;2.20;1.17;;;;;;;11.86;97.04;145171.23;1853571;77;22131;-63
2021/09/20 09:55:13;;;;;;;3.30;1.57;;;;;;;11.82;96.39;145159.88;1834970;77;20206;-61
2021/09/20 09:57:54;;;;;;;5.53;1.37;;;;;;;11.87;96.53;145173.72;1853611;77;22128;-63
2021/09/20 10:00:49;;;;;;;3.45;1.27;;;;;;;11.97;96.79;145196.34;1834995;77;22136;-64
2021/09/20 10:04:15;;;;;;;2.20;1.22;;;;;;;12.07;96.57;145221.45;1834755;77;22192;-64
2021/09/20 10:06:56;;;;;;;3.15;1.60;;;;;;;12.29;95.89;145276.72;1834823;77;22595;-62
2021/09/20 10:09:31;;;;;;;3.10;1.47;;;;;;;12.40;95.72;145301.83;1853607;77;22135;-61
2021/09/20 10:12:06;;;;;;;4.10;1.40;;;;;;;12.58;95.37;145347.05;1835090;77;22140;-61
2021/09/20 10:15:03;;;;;;;5.05;1.85;;;;;;;12.76;94.96;145391.02;1834922;77;22159;-63
2021/09/20 10:17:40;;;;;;;4.83;3.05;;;;;;;12.77;93.95;145394.80;1835015;77;22602;-63
2021/09/20 10:20:40;;;;;;;3.70;2.70;;;;;;;12.81;93.57;145404.83;1853574;77;22132;-63
2021/09/20 10:23:21;;;;;;;5.00;1.92;;;;;;;12.81;92.02;145404.83;1834205;77;22152;-64
2021/09/20 10:25:56;;;;;;;2.40;1.35;;;;;;;12.69;91.40;145373.42;1835023;77;22527;-61
2021/09/20 10:28:33;;;;;;;4.05;1.57;;;;;;;12.49;91.28;145325.70;1853552;77;22201;-65
2021/09/20 10:31:29;;;;;;;2.85;1.50;;;;;;;12.29;92.12;145276.72;1853535;77;22131;-65
2021/09/20 10:34:21;;;;;;;4.60;1.77;;;;;;;12.20;92.24;145254.09;1835059;77;22547;-64
2021/09/20 10:37:14;;;;;;;3.42;1.72;;;;;;;12.05;92.72;145217.66;1819447;77;27971;-63
2021/09/20 10:40:10;;;;;;;3.40;1.60;;;;;;;12.10;92.81;145228.97;1835122;77;22145;-64
2021/09/20 10:43:07;;;;;;;3.05;1.60;;;;;;;12.10;92.55;145230.22;1853584;77;22154;-61
2021/09/20 10:46:01;;;;;;;3.30;1.70;;;;;;;12.18;92.67;145249.06;1853560;77;20210;-64
2021/09/20 10:49:02;;;;;;;3.98;1.60;;;;;;;12.20;91.74;145252.84;1853913;77;22204;-63
2021/09/20 10:51:40;;;;;;;2.75;1.50;;;;;;;12.22;91.80;145259.13;1853596;77;22124;-63
2021/09/20 10:54:35;;;;;;;3.90;1.77;;;;;;;12.26;91.39;145269.19;1853534;77;22577;-63
2021/09/20 10:57:30;;;;;;;2.92;1.60;;;;;;;12.23;91.34;145261.63;1834917;77;22607;-63
2021/09/20 11:00:25;;;;;;;5.95;1.98;;;;;;;12.16;91.28;145245.31;1835055;77;22587;-65
2021/09/20 11:03:47;;;;;;;2.50;1.55;;;;;;;12.06;91.56;145220.20;1835026;77;22125;-61
2021/09/20 11:06:32;;;;;;;4.12;1.72;;;;;;;11.96;92.17;145195.09;1853522;77;22553;-64
2021/09/20 11:09:30;;;;;;;4.83;2.30;;;;;;;11.88;92.42;145176.25;1834956;77;22177;-62
2021/09/20 11:12:16;;;;;;;5.03;1.72;;;;;;;11.94;92.80;145190.06;1853565;77;22123;-62
2021/09/20 11:15:16;;;;;;;3.72;2.02;;;;;;;12.13;92.83;145236.50;1853556;77;22163;-62
2021/09/20 11:18:11;;;;;;;4.45;1.85;;;;;;;12.24;92.04;145264.16;1834866;77;20361;-61
2021/09/20 11:21:07;;;;;;;5.37;2.00;;;;;;;12.39;91.17;145300.59;1819376;77;28408;-64
2021/09/20 11:24:14;;;;;;;6.55;2.20;;;;;;;12.54;90.63;145336.97;1835017;77;22136;-61
2021/09/20 11:26:55;;;;;;;3.50;1.47;;;;;;;12.56;90.23;145342.02;1834273;77;22155;-63
2021/09/20 11:29:54;;;;;;;2.47;1.20;;;;;;;12.56;89.21;145342.02;1834950;77;22140;-64
2021/09/20 11:32:55;;;;;;;2.80;1.37;;;;;;;12.53;88.83;145334.48;1834868;77;22136;-63
2021/09/20 11:35:50;;;;;;;2.45;1.40;;;;;;;12.51;88.42;145329.45;1835021;77;22128;-60
2021/09/20 11:38:46;;;;;;;2.35;1.25;;;;;;;12.48;88.16;145321.92;1834792;77;22155;-63
2021/09/20 11:41:45;;;;;;;3.60;1.40;;;;;;;12.50;88.04;145328.20;1853524;77;22200;-64
2021/09/20 11:44:23;;;;;;;2.30;1.30;;;;;;;12.54;87.93;145336.97;1837810;77;27927;-63
2021/09/20 11:46:58;;;;;;;3.25;1.60;;;;;;;12.55;87.67;145339.52;1853464;77;22132;-64
2021/09/20 11:50:10;;;;;;;3.00;1.70;;;;;;;12.64;88.03;145360.84;1835037;77;22132;-61
2021/09/20 11:52:51;;;;;;;2.72;1.50;;;;;;;12.78;87.84;145397.30;1835472;77;22554;-62
2021/09/20 11:55:49;;;;;;;4.72;1.70;;;;;;;12.90;87.38;145426.22;1853735;77;22166;-61
2021/09/20 11:58:53;;;;;;;3.80;1.47;;;;;;;12.91;86.76;145428.70;1835075;77;22133;-63
2021/09/20 12:01:47;;;;;;;4.70;1.90;;;;;;;12.94;86.32;145434.98;1848234;78;22128;-62
2021/09/20 12:04:48;;;;;;;5.40;1.60;;;;;;;13.10;86.02;145475.23;1834989;77;22124;-62
2021/09/20 12:07:34;;;;;;;3.45;1.80;;;;;;;13.17;85.41;145492.78;1835002;77;22602;-62
2021/09/20 12:10:36;;;;;;;2.87;1.50;;;;;;;13.27;85.03;145515.47;1834772;77;22180;-63
2021/09/20 12:13:35;;;;;;;2.30;1.40;;;;;;;13.22;83.31;145504.11;1816861;77;22215;-61
2021/09/20 12:16:27;;;;;;;5.40;1.70;;;;;;;13.17;84.31;145492.78;1853472;77;22551;-64
2021/09/20 12:19:27;;;;;;;4.22;1.90;;;;;;;13.51;83.17;145575.83;1837328;77;22195;-65
2021/09/20 12:22:02;;;;;;;2.92;1.70;;;;;;;13.41;81.83;145550.69;1828640;77;22171;-64
2021/09/20 12:24:37;;;;;;;2.87;1.45;;;;;;;13.07;82.14;145467.66;1834123;77;22181;-63
2021/09/20 12:27:14;;;;;;;7.62;2.00;;;;;;;12.85;83.18;145412.34;1834719;77;22195;-61
2021/09/20 12:29:56;;;;;;;4.42;1.42;;;;;;;12.72;83.83;145380.94;1853888;77;22200;-63
2021/09/20 12:33:09;;;;;;;4.12;1.60;;;;;;;12.56;84.54;145343.25;1834023;77;22612;-64
2021/09/20 12:36:09;;;;;;;2.90;1.62;;;;;;;12.42;85.22;145306.88;1833901;77;22607;-64
2021/09/20 12:39:08;;;;;;;4.12;1.90;;;;;;;12.34;86.05;145288.03;1834947;77;22136;-64
2021/09/20 12:42:03;;;;;;;3.65;1.22;;;;;;;12.24;86.14;145264.16;1819274;77;27936;-64
2021/09/20 12:44:50;;;;;;;6.15;1.60;;;;;;;12.22;86.66;145259.13;1834976;77;22132;-63
2021/09/20 12:47:29;;;;;;;2.80;1.50;;;;;;;12.20;87.14;145254.09;1853543;77;22180;-64
2021/09/20 12:50:22;;;;;;;2.80;1.40;;;;;;;12.26;87.39;145267.89;1834901;77;22623;-63
2021/09/20 12:53:36;;;;;;;3.27;1.65;;;;;;;12.33;87.35;145286.73;1834152;77;22598;-61
2021/09/20 12:56:14;;;;;;;3.37;1.60;;;;;;;12.41;87.24;145304.33;1842098;77;22207;-65